Time;durP1;ratioP1;P1;durP2;ratioP2;P2;SDS_P1;SDS_P2;PMS_P1;PMS_P2;Temp;Humidity;BMP_temperature;BMP_pressure;BME280_temperature;BME280_humidity;BME280_pressure;Samples;Min_cycle;Max_cycle;Signal;HPM_P1;HPM_P2
2024/04/14 00:00:18;;;;;;;1.50;1.40;;;16.40;50.00;16.90;98354.00;;;;5346619;26;20272;-58
2024/04/14 00:02:47;;;;;;;1.40;1.30;;;16.40;50.00;16.90;98346.00;;;;5346880;26;20309;-58
2024/04/14 00:05:13;;;;;;;1.30;1.20;;;16.40;50.00;16.90;98345.00;;;;5346877;26;20308;-58
2024/04/14 00:07:42;;;;;;;1.27;1.27;;;16.40;50.00;16.90;98338.00;;;;5346797;26;20230;-58
2024/04/14 00:10:08;;;;;;;1.40;1.30;;;16.40;50.00;16.90;98346.00;;;;5346370;26;20311;-58
2024/04/14 00:12:39;;;;;;;1.33;1.23;;;16.40;50.00;16.80;98345.00;;;;5346803;26;20230;-58
2024/04/14 00:15:06;;;;;;;1.37;1.30;;;16.40;50.00;16.80;98338.00;;;;5346620;26;20285;-58
2024/04/14 00:17:35;;;;;;;1.33;1.23;;;16.40;50.00;16.80;98335.00;;;;5346574;26;20554;-58
2024/04/14 00:20:01;;;;;;;1.60;1.50;;;16.40;50.00;16.80;98331.00;;;;5345934;26;20861;-58
2024/04/14 00:22:29;;;;;;;1.40;1.30;;;16.40;50.00;16.80;98331.00;;;;5346862;26;20347;-58
2024/04/14 00:24:56;;;;;;;1.20;1.20;;;16.40;50.00;16.80;98331.00;;;;5346970;26;20325;-58
2024/04/14 00:27:25;;;;;;;1.07;1.07;;;16.40;50.00;16.80;98330.00;;;;5346781;26;20571;-58
2024/04/14 00:29:53;;;;;;;1.37;1.27;;;16.30;50.00;16.80;98325.00;;;;5345791;26;20344;-58
2024/04/14 00:32:22;;;;;;;1.47;1.40;;;16.30;50.00;16.80;98329.00;;;;5346549;26;20245;-58
2024/04/14 00:34:51;;;;;;;1.33;1.23;;;16.30;50.10;16.80;98337.00;;;;5346639;26;20326;-58
2024/04/14 00:37:19;;;;;;;1.30;1.20;;;16.30;50.10;16.80;98330.00;;;;5346330;26;20267;-58
2024/04/14 00:39:45;;;;;;;1.17;1.17;;;16.30;50.10;16.80;98330.00;;;;5345662;26;20294;-58
2024/04/14 00:42:14;;;;;;;1.50;1.40;;;16.30;50.10;16.80;98326.00;;;;5346845;26;20282;-58
2024/04/14 00:44:41;;;;;;;1.43;1.37;;;16.30;50.10;16.80;98315.00;;;;5346253;26;20359;-58
2024/04/14 00:47:13;;;;;;;1.53;1.43;;;16.30;50.10;16.80;98317.00;;;;5346100;26;20276;-58
2024/04/14 00:49:41;;;;;;;1.23;1.23;;;16.30;50.10;16.80;98324.00;;;;5344666;26;20280;-58
2024/04/14 00:52:12;;;;;;;1.50;1.40;;;16.30;50.10;16.80;98323.00;;;;5346906;26;20277;-58
2024/04/14 00:54:38;;;;;;;1.40;1.30;;;16.30;50.10;16.80;98319.00;;;;5346439;26;20754;-58
2024/04/14 00:57:07;;;;;;;1.50;1.40;;;16.30;50.10;16.80;98319.00;;;;5346112;26;20316;-58
2024/04/14 00:59:36;;;;;;;1.37;1.27;;;16.30;50.10;16.80;98318.00;;;;5345356;26;20813;-58
2024/04/14 01:02:05;;;;;;;1.50;1.40;;;16.30;50.10;16.80;98313.00;;;;5345935;26;20669;-58
2024/04/14 01:04:33;;;;;;;1.43;1.33;;;16.30;50.10;16.70;98309.00;;;;5346789;26;20312;-58
2024/04/14 01:07:02;;;;;;;1.37;1.27;;;16.30;50.10;16.80;98310.00;;;;5346023;26;20233;-58
2024/04/14 01:09:28;;;;;;;1.33;1.23;;;16.30;50.10;16.70;98311.00;;;;5345070;26;20290;-58
2024/04/14 01:11:57;;;;;;;1.33;1.30;;;16.20;50.10;16.70;98309.00;;;;5346607;26;20599;-58
2024/04/14 01:14:23;;;;;;;1.60;1.50;;;16.30;50.10;16.70;98304.00;;;;5345959;26;20304;-58
2024/04/14 01:16:52;;;;;;;1.50;1.40;;;16.30;50.20;16.70;98295.00;;;;5346029;26;20313;-58
2024/04/14 01:19:18;;;;;;;1.17;1.17;;;16.30;50.10;16.70;98301.00;;;;5345740;26;20376;-58
2024/04/14 01:21:49;;;;;;;1.50;1.40;;;16.20;50.10;16.70;98304.00;;;;5345686;26;20291;-58
2024/04/14 01:24:18;;;;;;;1.30;1.20;;;16.20;50.10;16.70;98304.00;;;;5345899;26;20417;-58
2024/04/14 01:26:47;;;;;;;1.60;1.50;;;16.20;50.10;16.70;98310.00;;;;5346313;26;20364;-58
2024/04/14 01:29:15;;;;;;;1.37;1.27;;;16.20;50.10;16.70;98315.00;;;;5344672;26;20271;-58
2024/04/14 01:31:41;;;;;;;1.50;1.40;;;16.20;50.10;16.70;98311.00;;;;5345710;26;20387;-58
2024/04/14 01:34:11;;;;;;;1.37;1.27;;;16.20;50.10;16.70;98314.00;;;;5345744;26;20241;-58
2024/04/14 01:36:37;;;;;;;1.50;1.40;;;16.20;50.40;16.70;98307.00;;;;5346242;26;20230;-58
2024/04/14 01:39:05;;;;;;;1.40;1.30;;;16.20;50.10;16.70;98301.00;;;;5344697;26;20233;-58
2024/04/14 01:41:31;;;;;;;1.20;1.20;;;16.20;50.10;16.70;98298.00;;;;5346105;26;20384;-58
2024/04/14 01:44:03;;;;;;;1.43;1.37;;;16.20;50.10;16.70;98299.00;;;;5345567;26;20245;-58
2024/04/14 01:46:29;;;;;;;1.87;1.40;;;16.20;50.10;16.70;98299.00;;;;5345481;26;20710;-58
2024/04/14 01:48:57;;;;;;;1.17;1.17;;;16.20;50.10;16.70;98302.00;;;;5344746;26;20342;-58
2024/04/14 01:51:23;;;;;;;1.17;1.17;;;16.20;50.10;16.70;98300.00;;;;5345307;26;20253;-58
2024/04/14 01:53:52;;;;;;;1.60;1.50;;;16.20;50.10;16.70;98296.00;;;;5345723;26;20275;-58
2024/04/14 01:56:18;;;;;;;1.40;1.30;;;16.20;50.10;16.70;98300.00;;;;5346614;26;20239;-58
2024/04/14 01:58:47;;;;;;;1.40;1.30;;;16.20;50.10;16.70;98286.00;;;;5344302;26;20752;-58
2024/04/14 02:01:16;;;;;;;1.30;1.20;;;16.20;50.10;16.70;98294.00;;;;5345623;26;20316;-58
2024/04/14 02:03:44;;;;;;;1.30;1.20;;;16.20;50.10;16.60;98291.00;;;;5345465;26;20247;-58
2024/04/14 02:06:10;;;;;;;1.10;1.10;;;16.20;50.20;16.60;98290.00;;;;5345839;26;20305;-58
2024/04/14 02:08:39;;;;;;;1.20;1.20;;;16.10;50.20;16.60;98290.00;;;;5344440;26;20346;-58
2024/04/14 02:11:05;;;;;;;1.83;1.40;;;16.20;50.10;16.60;98292.00;;;;5345967;26;20598;-58
2024/04/14 02:13:35;;;;;;;1.40;1.30;;;16.10;50.20;16.60;98295.00;;;;5345351;26;20339;-58
2024/04/14 02:16:01;;;;;;;1.20;1.20;;;16.20;50.20;16.60;98293.00;;;;5345247;26;20268;-58
2024/04/14 02:18:32;;;;;;;1.33;1.30;;;16.20;50.20;16.60;98284.00;;;;5344904;26;20573;-58
2024/04/14 02:20:58;;;;;;;1.30;1.30;;;16.20;50.20;16.60;98280.00;;;;5345215;26;20309;-58
2024/04/14 02:23:27;;;;;;;1.40;1.30;;;16.20;50.20;16.60;98281.00;;;;5345311;26;20394;-58
2024/04/14 02:25:57;;;;;;;1.40;1.30;;;16.20;50.20;16.60;98280.00;;;;5358950;26;20240;-58
2024/04/14 02:28:25;;;;;;;1.10;1.10;;;16.20;50.20;16.60;98279.00;;;;5379210;26;21042;-58
2024/04/14 02:30:52;;;;;;;1.17;1.17;;;16.20;50.20;16.60;98280.00;;;;5379986;26;20717;-58
2024/04/14 02:33:21;;;;;;;1.40;1.30;;;16.10;50.20;16.60;98274.00;;;;5380119;26;20232;-58
2024/04/14 02:36:00;;;;;;;1.50;1.40;;;16.10;50.20;16.60;98285.00;;;;5354596;26;20253;-58
2024/04/14 02:38:29;;;;;;;1.30;1.20;;;16.10;50.20;16.60;98281.00;;;;5343973;26;20271;-58
2024/04/14 02:40:57;;;;;;;1.30;1.30;;;16.10;50.20;16.60;98278.00;;;;5345148;26;20387;-58
2024/04/14 02:43:26;;;;;;;1.50;1.40;;;16.10;50.20;16.60;98278.00;;;;5345011;26;20236;-58
2024/04/14 02:45:52;;;;;;;1.57;1.30;;;16.10;50.20;16.60;98271.00;;;;5344659;26;20302;-58
2024/04/14 02:48:21;;;;;;;2.57;1.40;;;16.10;50.20;16.60;98278.00;;;;5343749;26;20335;-58
2024/04/14 02:50:47;;;;;;;1.10;1.10;;;16.10;50.20;16.60;98262.00;;;;5344427;26;20359;-58
2024/04/14 02:53:19;;;;;;;1.13;1.13;;;16.10;50.20;16.60;98257.00;;;;5344441;26;20285;-58
2024/04/14 02:55:45;;;;;;;1.40;1.30;;;16.10;50.20;16.60;98266.00;;;;5345348;26;20241;-58
2024/04/14 02:58:14;;;;;;;1.20;1.20;;;16.10;50.20;16.60;98265.00;;;;5343352;26;20322;-58
2024/04/14 03:00:40;;;;;;;1.30;1.30;;;16.10;50.20;16.50;98263.00;;;;5344160;26;20436;-58
2024/04/14 03:03:08;;;;;;;1.37;1.27;;;16.10;50.30;16.60;98273.00;;;;5344534;26;20820;-58
2024/04/14 03:05:34;;;;;;;1.20;1.20;;;16.10;50.20;16.60;98265.00;;;;5344313;26;20245;-58
2024/04/14 03:08:04;;;;;;;1.50;1.40;;;16.10;50.30;16.50;98263.00;;;;5343845;26;20241;-58
2024/04/14 03:10:33;;;;;;;1.60;1.50;;;16.10;50.30;16.50;98268.00;;;;5344841;26;20745;-58
2024/04/14 03:13:02;;;;;;;2.07;1.30;;;16.00;50.20;16.50;98267.00;;;;5347279;26;20280;-58
2024/04/14 03:15:28;;;;;;;1.40;1.30;;;16.10;50.30;16.50;98269.00;;;;5347624;26;20312;-58
2024/04/14 03:17:57;;;;;;;1.60;1.50;;;16.10;50.30;16.50;98264.00;;;;5346937;26;20237;-58
2024/04/14 03:20:23;;;;;;;1.50;1.40;;;16.00;50.20;16.50;98269.00;;;;5347780;26;20367;-58
2024/04/14 03:22:52;;;;;;;1.70;1.60;;;16.00;50.20;16.50;98269.00;;;;5347471;26;20341;-58
2024/04/14 03:25:17;;;;;;;1.33;1.30;;;16.10;50.30;16.50;98278.00;;;;5348080;26;20288;-58
2024/04/14 03:27:50;;;;;;;1.40;1.30;;;16.00;50.20;16.50;98272.00;;;;5347674;26;20334;-58
2024/04/14 03:30:17;;;;;;;1.40;1.30;;;16.00;50.20;16.50;98275.00;;;;5346769;26;20240;-58
2024/04/14 03:32:45;;;;;;;1.40;1.30;;;16.00;50.20;16.50;98272.00;;;;5347194;26;20229;-58
2024/04/14 03:35:11;;;;;;;1.13;1.13;;;16.10;50.30;16.50;98274.00;;;;5347891;26;20884;-58
2024/04/14 03:37:42;;;;;;;1.50;1.40;;;16.10;50.30;16.50;98279.00;;;;5347194;26;20234;-58
2024/04/14 03:40:12;;;;;;;1.20;1.20;;;16.00;50.20;16.50;98267.00;;;;5346852;26;20232;-58
2024/04/14 03:42:41;;;;;;;1.60;1.50;;;16.00;50.20;16.50;98262.00;;;;5346997;26;20849;-58
2024/04/14 03:45:12;;;;;;;1.13;1.13;;;16.00;50.20;16.50;98261.00;;;;5347322;26;20292;-58
2024/04/14 03:47:38;;;;;;;1.60;1.50;;;16.00;50.20;16.50;98258.00;;;;5347210;26;20288;-58
2024/04/14 03:50:08;;;;;;;1.70;1.57;;;16.00;50.20;16.50;98265.00;;;;5347518;26;20358;-58
2024/04/14 03:52:34;;;;;;;1.23;1.23;;;16.00;50.30;16.50;98263.00;;;;5347420;26;20770;-58
2024/04/14 03:55:03;;;;;;;1.60;1.50;;;16.00;50.20;16.50;98260.00;;;;5347940;26;20726;-58
2024/04/14 03:57:29;;;;;;;1.20;1.20;;;16.00;50.30;16.50;98257.00;;;;5347182;26;20310;-58
2024/04/14 04:00:00;;;;;;;1.33;1.27;;;16.00;50.30;16.50;98263.00;;;;5346495;26;20280;-58
2024/04/14 04:02:28;;;;;;;1.50;1.40;;;16.00;50.20;16.50;98254.00;;;;5347308;26;20233;-58
2024/04/14 04:04:57;;;;;;;1.57;1.47;;;16.00;50.30;16.50;98258.00;;;;5347809;26;20802;-58
2024/04/14 04:07:23;;;;;;;1.50;1.40;;;16.00;50.30;16.50;98263.00;;;;5347198;26;20668;-58
2024/04/14 04:09:53;;;;;;;1.60;1.50;;;16.00;50.30;16.40;98265.00;;;;5346210;26;20830;-58
2024/04/14 04:12:19;;;;;;;1.37;1.27;;;15.90;50.30;16.40;98261.00;;;;5347857;26;20305;-58
2024/04/14 04:14:47;;;;;;;1.50;1.40;;;16.00;50.30;16.40;98258.00;;;;5346936;26;20827;-58
2024/04/14 04:17:13;;;;;;;1.53;1.43;;;16.00;50.30;16.40;98269.00;;;;5347117;26;20288;-58
2024/04/14 04:19:44;;;;;;;1.50;1.40;;;16.00;50.30;16.40;98267.00;;;;5346793;26;20354;-57
2024/04/14 04:22:10;;;;;;;1.50;1.40;;;16.00;50.30;16.40;98268.00;;;;5347088;26;20301;-57
2024/04/14 04:24:39;;;;;;;1.50;1.40;;;16.00;50.30;16.40;98260.00;;;;5347031;26;20359;-57
2024/04/14 04:27:05;;;;;;;1.50;1.40;;;16.00;50.30;16.40;98258.00;;;;5347521;26;20366;-57
2024/04/14 04:29:34;;;;;;;1.43;1.33;;;15.90;50.40;16.40;98262.00;;;;5345947;26;20294;-57
2024/04/14 04:32:00;;;;;;;1.50;1.40;;;15.90;50.30;16.40;98253.00;;;;5346800;26;20726;-57
2024/04/14 04:34:29;;;;;;;1.50;1.40;;;16.00;50.30;16.40;98249.00;;;;5346716;26;20241;-58
2024/04/14 04:36:57;;;;;;;1.20;1.20;;;15.90;50.40;16.40;98259.00;;;;5347136;26;20293;-57
2024/04/14 04:39:26;;;;;;;1.60;1.50;;;15.90;50.40;16.40;98253.00;;;;5345475;26;20229;-60
2024/04/14 04:41:52;;;;;;;1.30;1.30;;;15.90;50.40;16.40;98259.00;;;;5347098;26;20642;-57
2024/04/14 04:44:21;;;;;;;1.30;1.30;;;15.90;50.40;16.40;98272.00;;;;5346383;26;20229;-57
2024/04/14 04:46:46;;;;;;;1.87;1.40;;;15.90;51.00;16.40;98262.00;;;;5346354;26;20336;-57
2024/04/14 04:49:15;;;;;;;1.60;1.50;;;15.90;50.40;16.40;98263.00;;;;5346251;26;20291;-58
2024/04/14 04:51:41;;;;;;;1.27;1.27;;;15.90;50.40;16.40;98279.00;;;;5346386;26;20304;-58
2024/04/14 04:54:13;;;;;;;1.50;1.40;;;15.90;50.40;16.40;98263.00;;;;5346401;26;20338;-57
2024/04/14 04:56:39;;;;;;;1.50;1.40;;;15.90;50.40;16.40;98270.00;;;;5346434;26;20241;-57
2024/04/14 04:59:08;;;;;;;1.20;1.20;;;15.90;50.40;16.40;98266.00;;;;5345409;26;20233;-57
2024/04/14 05:01:34;;;;;;;1.40;1.30;;;15.90;50.40;16.40;98269.00;;;;5346170;26;20395;-57
2024/04/14 05:04:03;;;;;;;1.60;1.50;;;15.90;50.40;16.40;98278.00;;;;5346888;26;20233;-58
2024/04/14 05:06:29;;;;;;;1.60;1.50;;;15.90;50.40;16.40;98281.00;;;;5346305;26;20749;-57
2024/04/14 05:08:57;;;;;;;1.53;1.43;;;15.90;50.40;16.40;98268.00;;;;5345384;26;20237;-57
2024/04/14 05:11:26;;;;;;;1.40;1.30;;;15.90;50.40;16.40;98271.00;;;;5346609;26;20289;-58
2024/04/14 05:13:54;;;;;;;1.70;1.60;;;15.90;50.40;16.40;98269.00;;;;5346090;26;20296;-57
2024/04/14 05:16:22;;;;;;;2.47;1.33;;;15.90;50.40;16.40;98270.00;;;;5345929;26;20297;-57
2024/04/14 05:18:51;;;;;;;1.60;1.50;;;15.90;50.40;16.40;98268.00;;;;5344954;26;20279;-57
2024/04/14 05:21:17;;;;;;;1.20;1.20;;;15.90;50.40;16.40;98269.00;;;;5345846;26;20715;-57
2024/04/14 05:23:46;;;;;;;1.20;1.20;;;15.90;50.40;16.40;98274.00;;;;5345878;26;20237;-57
2024/04/14 05:26:12;;;;;;;1.30;1.20;;;15.90;50.40;16.40;98272.00;;;;5346283;26;20296;-57
2024/04/14 05:28:43;;;;;;;1.60;1.50;;;15.90;50.30;16.40;98278.00;;;;5344975;26;20339;-57
2024/04/14 05:31:09;;;;;;;1.53;1.43;;;15.90;50.30;16.40;98274.00;;;;5345812;26;20317;-57
2024/04/14 05:33:38;;;;;;;1.60;1.50;;;15.90;50.30;16.40;98282.00;;;;5345424;26;20335;-57
2024/04/14 05:36:05;;;;;;;1.50;1.40;;;15.90;50.30;16.40;98285.00;;;;5345779;26;20263;-57
2024/04/14 05:38:35;;;;;;;1.17;1.17;;;15.90;50.30;16.40;98286.00;;;;5344913;26;20267;-57
2024/04/14 05:41:01;;;;;;;1.60;1.50;;;15.90;50.30;16.40;98287.00;;;;5345798;26;20252;-57
2024/04/14 05:43:30;;;;;;;1.33;1.33;;;15.90;50.30;16.40;98288.00;;;;5345754;26;20242;-57
2024/04/14 05:45:58;;;;;;;1.60;1.50;;;15.90;50.30;16.40;98304.00;;;;5345883;26;20346;-57
2024/04/14 05:48:27;;;;;;;1.40;1.30;;;15.90;50.30;16.40;98306.00;;;;5344605;26;20308;-57
2024/04/14 05:50:53;;;;;;;1.67;1.57;;;15.90;50.30;16.40;98305.00;;;;5346287;26;20335;-57
2024/04/14 05:53:22;;;;;;;1.50;1.40;;;15.90;50.30;16.40;98297.00;;;;5345558;26;20233;-57
2024/04/14 05:55:48;;;;;;;1.50;1.40;;;15.90;50.30;16.40;98303.00;;;;5357324;26;20287;-57
2024/04/14 05:58:16;;;;;;;1.80;1.70;;;16.00;50.20;16.40;98303.00;;;;5379695;26;20228;-57
2024/04/14 06:00:43;;;;;;;1.80;1.70;;;16.00;50.20;16.50;98306.00;;;;5380474;26;20299;-57
2024/04/14 06:03:14;;;;;;;1.70;1.60;;;16.00;50.10;16.50;98305.00;;;;5371639;26;20249;-57
2024/04/14 06:05:40;;;;;;;1.30;1.30;;;16.00;50.10;16.50;98305.00;;;;5345559;26;20585;-57
2024/04/14 06:08:11;;;;;;;1.50;1.40;;;16.00;50.10;16.50;98304.00;;;;5344689;26;20334;-59
2024/04/14 06:10:37;;;;;;;1.70;1.60;;;16.00;50.10;16.50;98311.00;;;;5346170;26;20299;-57
2024/04/14 06:13:06;;;;;;;1.63;1.53;;;16.00;50.10;16.50;98311.00;;;;5345376;26;20717;-57
2024/04/14 06:15:32;;;;;;;1.67;1.57;;;16.00;50.00;16.50;98313.00;;;;5345202;26;21233;-58
2024/04/14 06:18:01;;;;;;;1.80;1.70;;;16.10;50.10;16.50;98316.00;;;;5344641;26;20897;-58
2024/04/14 06:20:30;;;;;;;1.30;1.27;;;16.00;50.00;16.50;98313.00;;;;5345464;26;20789;-58
2024/04/14 06:22:58;;;;;;;1.60;1.50;;;16.10;50.00;16.50;98307.00;;;;5345244;26;20230;-57
2024/04/14 06:25:25;;;;;;;1.70;1.60;;;16.10;50.00;16.50;98310.00;;;;5345854;26;20301;-58
2024/04/14 06:27:53;;;;;;;1.60;1.50;;;16.10;50.00;16.60;98312.00;;;;5344954;26;20281;-57
2024/04/14 06:30:19;;;;;;;1.70;1.60;;;16.20;50.00;16.60;98310.00;;;;5344904;26;20305;-57
2024/04/14 06:32:48;;;;;;;1.73;1.63;;;16.10;50.00;16.60;98316.00;;;;5345108;26;20334;-57
2024/04/14 06:35:14;;;;;;;1.50;1.40;;;16.20;49.90;16.60;98316.00;;;;5345460;26;20297;-57
2024/04/14 06:37:46;;;;;;;1.80;1.70;;;16.20;49.80;16.60;98315.00;;;;5344736;26;20299;-57
2024/04/14 06:40:13;;;;;;;1.40;1.30;;;16.20;49.70;16.60;98319.00;;;;5344022;26;20248;-57
2024/04/14 06:42:41;;;;;;;1.70;1.60;;;16.20;49.70;16.70;98322.00;;;;5344808;26;20259;-57
2024/04/14 06:45:07;;;;;;;1.97;1.83;;;16.30;49.70;16.70;98314.00;;;;5344780;26;20229;-57
2024/04/14 06:47:36;;;;;;;2.03;1.93;;;16.30;49.60;16.70;98310.00;;;;5346983;26;20236;-57
2024/04/14 06:50:02;;;;;;;1.60;1.50;;;16.30;49.60;16.70;98310.00;;;;5346972;26;20379;-58
2024/04/14 06:52:31;;;;;;;1.67;1.57;;;16.30;49.50;16.70;98312.00;;;;5347442;26;20229;-57
2024/04/14 06:54:59;;;;;;;1.67;1.57;;;16.40;49.40;16.80;98318.00;;;;5348483;26;20284;-57
2024/04/14 06:57:28;;;;;;;1.50;1.40;;;16.40;49.40;16.80;98320.00;;;;5347573;26;21030;-57
2024/04/14 06:59:54;;;;;;;1.70;1.60;;;16.40;49.40;16.80;98321.00;;;;5346833;26;20284;-57
2024/04/14 07:02:23;;;;;;;1.50;1.40;;;16.40;49.30;16.80;98320.00;;;;5347807;26;20746;-57
2024/04/14 07:04:49;;;;;;;1.67;1.57;;;16.40;49.30;16.80;98326.00;;;;5347740;26;20304;-57
2024/04/14 07:07:18;;;;;;;1.57;1.47;;;16.50;49.30;16.80;98323.00;;;;5347957;26;20706;-57
2024/04/14 07:09:44;;;;;;;1.50;1.40;;;16.50;49.30;16.90;98332.00;;;;5346511;26;20226;-57
2024/04/14 07:12:15;;;;;;;1.63;1.53;;;16.50;49.20;16.90;98329.00;;;;5347782;26;20298;-57
2024/04/14 07:14:41;;;;;;;1.73;1.63;;;16.50;49.20;16.90;98327.00;;;;5347725;26;20355;-57
2024/04/14 07:17:10;;;;;;;1.80;1.70;;;16.60;49.00;16.90;98329.00;;;;5347402;26;20663;-57
2024/04/14 07:19:36;;;;;;;1.50;1.40;;;16.60;49.00;17.00;98335.00;;;;5346936;26;20311;-57
2024/04/14 07:22:04;;;;;;;1.50;1.40;;;16.60;48.90;17.00;98329.00;;;;5347470;26;20257;-57
2024/04/14 07:24:30;;;;;;;1.60;1.50;;;16.60;48.80;17.00;98326.00;;;;5347581;26;20296;-57
2024/04/14 07:26:59;;;;;;;1.57;1.47;;;16.60;48.80;17.00;98329.00;;;;5348126;26;20863;-57
2024/04/14 07:29:27;;;;;;;1.77;1.57;;;16.70;48.80;17.00;98331.00;;;;5346578;26;20359;-57
2024/04/14 07:31:57;;;;;;;1.60;1.50;;;16.70;48.70;17.10;98331.00;;;;5347473;26;20320;-57
2024/04/14 07:34:23;;;;;;;1.80;1.70;;;16.70;48.60;17.10;98326.00;;;;5348051;26;20852;-57
2024/04/14 07:36:52;;;;;;;1.50;1.40;;;16.70;48.60;17.10;98335.00;;;;5347443;26;20280;-57
2024/04/14 07:39:18;;;;;;;1.90;1.70;;;16.80;48.50;17.10;98332.00;;;;5346358;26;20330;-57
2024/04/14 07:41:46;;;;;;;1.60;1.50;;;16.80;48.50;17.10;98330.00;;;;5347284;26;20793;-57
2024/04/14 07:44:12;;;;;;;1.53;1.43;;;16.80;48.40;17.10;98338.00;;;;5347306;26;20285;-57
2024/04/14 07:46:43;;;;;;;1.50;1.40;;;16.80;48.40;17.20;98335.00;;;;5347239;26;20233;-57
2024/04/14 07:49:10;;;;;;;1.60;1.50;;;16.80;48.40;17.20;98334.00;;;;5346315;26;20821;-57
2024/04/14 07:51:38;;;;;;;1.53;1.43;;;16.80;48.30;17.20;98320.00;;;;5347766;26;20765;-57
2024/04/14 07:54:04;;;;;;;1.90;1.80;;;16.80;48.30;17.20;98322.00;;;;5347280;26;20293;-57
2024/04/14 07:56:33;;;;;;;1.27;1.20;;;16.90;48.40;17.20;98322.00;;;;5347624;26;20742;-57
2024/04/14 07:58:59;;;;;;;1.60;1.50;;;16.90;48.30;17.20;98320.00;;;;5345873;26;20229;-57
2024/04/14 08:01:28;;;;;;;1.70;1.60;;;16.90;48.20;17.30;98319.00;;;;5347022;26;20351;-57
2024/04/14 08:03:56;;;;;;;1.40;1.30;;;16.90;48.20;17.30;98324.00;;;;5347419;26;20297;-57
2024/04/14 08:06:25;;;;;;;1.67;1.57;;;16.90;48.20;17.30;98313.00;;;;5347087;26;20268;-57
2024/04/14 08:08:51;;;;;;;1.80;1.70;;;17.00;48.10;17.30;98318.00;;;;5346232;26;20352;-57
2024/04/14 08:11:19;;;;;;;1.70;1.60;;;17.00;48.10;17.30;98318.00;;;;5347558;26;20657;-57
2024/04/14 08:13:45;;;;;;;1.60;1.50;;;17.00;48.00;17.30;98325.00;;;;5346800;26;20229;-57
2024/04/14 08:16:14;;;;;;;1.57;1.47;;;17.00;48.00;17.30;98312.00;;;;5347019;26;20666;-57
2024/04/14 08:18:40;;;;;;;1.57;1.47;;;17.00;48.00;17.40;98317.00;;;;5346743;26;20340;-57
2024/04/14 08:21:11;;;;;;;1.67;1.57;;;17.00;48.00;17.40;98314.00;;;;5347150;26;20249;-57
2024/04/14 08:23:37;;;;;;;1.33;1.23;;;17.10;48.00;17.40;98315.00;;;;5346837;26;20352;-57
2024/04/14 08:26:07;;;;;;;1.50;1.40;;;17.10;48.00;17.40;98313.00;;;;5347362;26;20280;-57
2024/04/14 08:28:33;;;;;;;1.53;1.43;;;17.10;47.90;17.40;98306.00;;;;5345816;26;20601;-57
2024/04/14 08:31:02;;;;;;;1.50;1.40;;;17.10;47.90;17.40;98304.00;;;;5346615;26;20300;-57
2024/04/14 08:33:28;;;;;;;1.93;1.80;;;17.10;47.90;17.40;98314.00;;;;5346631;26;20276;-57
2024/04/14 08:35:56;;;;;;;1.50;1.40;;;17.10;47.90;17.40;98308.00;;;;5346520;26;20289;-57
2024/04/14 08:38:25;;;;;;;1.70;1.60;;;17.10;47.80;17.40;98307.00;;;;5345585;26;20348;-58
2024/04/14 08:40:54;;;;;;;1.77;1.67;;;17.10;47.90;17.40;98306.00;;;;5347015;26;20237;-57
2024/04/14 08:43:22;;;;;;;1.80;1.70;;;17.10;47.90;17.40;98310.00;;;;5346314;26;20233;-57
2024/04/14 08:45:52;;;;;;;1.60;1.50;;;17.10;47.90;17.50;98299.00;;;;5346558;26;20709;-57
2024/04/14 08:48:20;;;;;;;1.50;1.40;;;17.10;47.90;17.50;98315.00;;;;5346099;26;20241;-57
2024/04/14 08:50:50;;;;;;;1.27;1.23;;;17.10;47.90;17.50;98318.00;;;;5346323;26;20292;-58
2024/04/14 08:53:18;;;;;;;1.60;1.50;;;17.10;47.90;17.50;98307.00;;;;5346428;26;20311;-57
2024/04/14 08:55:50;;;;;;;1.50;1.40;;;17.10;47.90;17.50;98305.00;;;;5346328;26;20249;-57
2024/04/14 08:58:18;;;;;;;1.33;1.33;;;17.20;47.80;17.50;98300.00;;;;5345256;26;20318;-57
2024/04/14 09:00:50;;;;;;;1.50;1.40;;;17.20;47.80;17.50;98301.00;;;;5346251;26;20295;-57
2024/04/14 09:03:17;;;;;;;1.60;1.50;;;17.20;47.90;17.50;98306.00;;;;5346239;26;20292;-57
2024/04/14 09:05:48;;;;;;;1.40;1.30;;;17.20;47.80;17.50;98302.00;;;;5346399;26;20241;-57
2024/04/14 09:08:14;;;;;;;1.20;1.20;;;17.20;47.80;17.50;98301.00;;;;5344887;26;20364;-57
2024/04/14 09:10:43;;;;;;;1.30;1.30;;;17.20;47.80;17.50;98295.00;;;;5345080;26;20754;-57
2024/04/14 09:13:13;;;;;;;1.60;1.50;;;17.20;47.80;17.50;98302.00;;;;5346302;26;20332;-57
2024/04/14 09:15:43;;;;;;;1.30;1.30;;;17.20;47.90;17.50;98297.00;;;;5346289;26;20300;-57
2024/04/14 09:18:09;;;;;;;1.43;1.33;;;17.20;47.90;17.50;98297.00;;;;5345808;26;20237;-57
2024/04/14 09:20:37;;;;;;;1.50;1.40;;;17.20;47.90;17.50;98300.00;;;;5346064;26;20310;-57
2024/04/14 09:23:04;;;;;;;1.50;1.40;;;17.20;48.20;17.50;98306.00;;;;5346073;26;20286;-57
2024/04/14 09:25:32;;;;;;;1.50;1.40;;;17.20;48.00;17.50;98299.00;;;;5346607;26;20770;-57
2024/04/14 09:28:02;;;;;;;1.30;1.20;;;17.20;48.00;17.50;98296.00;;;;5345429;26;20689;-57
2024/04/14 09:30:33;;;;;;;1.20;1.20;;;17.20;48.00;17.50;98287.00;;;;5345493;26;20682;-57
2024/04/14 09:32:59;;;;;;;1.60;1.50;;;17.20;48.00;17.50;98292.00;;;;5345916;26;20689;-57
2024/04/14 09:35:29;;;;;;;1.60;1.50;;;17.20;48.00;17.50;98293.00;;;;5346680;26;20241;-57
2024/04/14 09:37:55;;;;;;;1.50;1.40;;;17.20;48.10;17.50;98288.00;;;;5345310;26;20288;-57
2024/04/14 09:40:25;;;;;;;1.53;1.43;;;17.20;48.00;17.50;98282.00;;;;5351651;26;20291;-57
2024/04/14 09:42:56;;;;;;;1.50;1.40;;;17.20;48.10;17.50;98286.00;;;;5380650;26;20288;-57
2024/04/14 09:45:27;;;;;;;1.40;1.30;;;17.20;48.10;17.50;98279.00;;;;5380531;26;20307;-57
2024/04/14 09:47:57;;;;;;;1.50;1.40;;;17.20;48.00;17.50;98285.00;;;;5380292;26;20670;-57
2024/04/14 09:50:26;;;;;;;1.57;1.47;;;17.20;48.10;17.50;98275.00;;;;5345645;26;20732;-57
2024/04/14 09:52:53;;;;;;;1.40;1.30;;;17.20;48.10;17.50;98272.00;;;;5345552;26;20817;-57
2024/04/14 09:55:22;;;;;;;1.60;1.50;;;17.20;48.10;17.60;98268.00;;;;5345989;26;20339;-58
2024/04/14 09:57:48;;;;;;;1.43;1.33;;;17.20;48.10;17.60;98265.00;;;;5345535;26;20234;-57
2024/04/14 10:00:18;;;;;;;1.70;1.60;;;17.20;48.10;17.50;98258.00;;;;5344321;26;20289;-57
2024/04/14 10:02:53;;;;;;;1.80;1.63;;;17.20;48.10;17.60;98257.00;;;;5345199;26;20359;-57
2024/04/14 10:05:27;;;;;;;1.50;1.40;;;17.20;48.10;17.60;98253.00;;;;5346101;26;20291;-57
2024/04/14 10:07:54;;;;;;;1.50;1.40;;;17.20;48.20;17.60;98256.00;;;;5345407;26;20285;-57
2024/04/14 10:10:25;;;;;;;1.43;1.33;;;17.20;48.20;17.60;98242.00;;;;5345478;26;20812;-57
2024/04/14 10:12:51;;;;;;;1.70;1.60;;;17.20;48.20;17.60;98238.00;;;;5345490;26;20245;-57
2024/04/14 10:15:20;;;;;;;1.73;1.63;;;17.20;48.20;17.60;98252.00;;;;5345195;26;20279;-57
2024/04/14 10:17:46;;;;;;;1.50;1.40;;;17.20;48.20;17.60;98245.00;;;;5345100;26;20338;-57
2024/04/14 10:20:20;;;;;;;1.43;1.33;;;17.20;48.20;17.60;98237.00;;;;5344881;26;20245;-57
2024/04/14 10:22:53;;;;;;;1.60;1.50;;;17.20;48.20;17.60;98235.00;;;;5345052;26;20345;-57
2024/04/14 10:25:22;;;;;;;1.50;1.40;;;17.20;48.20;17.60;98236.00;;;;5345666;26;20301;-57
2024/04/14 10:27:51;;;;;;;1.50;1.40;;;17.20;48.20;17.60;98233.00;;;;5345270;26;20237;-57
2024/04/14 10:30:21;;;;;;;1.63;1.53;;;17.20;48.20;17.60;98227.00;;;;5344123;26;20289;-57
2024/04/14 10:32:50;;;;;;;1.37;1.37;;;17.20;48.30;17.60;98230.00;;;;5344938;26;20233;-57
2024/04/14 10:35:17;;;;;;;1.60;1.50;;;17.20;48.30;17.60;98225.00;;;;5344908;26;20359;-57
2024/04/14 10:37:58;;;;;;;1.50;1.40;;;17.30;48.40;17.60;98219.00;;;;5344968;26;20267;-57
2024/04/14 10:40:24;;;;;;;1.23;1.23;;;17.20;48.30;17.60;98211.00;;;;5344902;26;20253;-57
2024/04/14 10:42:53;;;;;;;1.33;1.23;;;17.20;48.30;17.60;98211.00;;;;5344863;26;20233;-57
2024/04/14 10:45:27;;;;;;;1.57;1.47;;;17.30;48.50;17.60;98207.00;;;;5344807;26;20284;-57
2024/04/14 10:47:59;;;;;;;1.73;1.63;;;17.20;48.30;17.60;98197.00;;;;5344214;26;20229;-57
2024/04/14 10:50:27;;;;;;;1.57;1.47;;;17.30;48.50;17.60;98198.00;;;;5344889;26;20241;-57
2024/04/14 10:52:59;;;;;;;1.30;1.20;;;17.30;48.50;17.60;98192.00;;;;5344623;26;20293;-57
2024/04/14 10:55:25;;;;;;;1.60;1.50;;;17.20;48.40;17.60;98191.00;;;;5344560;26;20357;-57
2024/04/14 10:57:54;;;;;;;1.43;1.33;;;17.30;48.50;17.60;98188.00;;;;5344404;26;20234;-57